createdAt,value
2023-04-11T00:02:04.805Z,16.44
2023-04-11T00:04:34.183Z,16.55
2023-04-11T00:07:01.293Z,16.59
2023-04-11T00:09:28.058Z,16.55
2023-04-11T00:11:54.805Z,16.59
2023-04-11T00:14:21.540Z,16.58
2023-04-11T00:16:49.911Z,16.50
2023-04-11T00:19:17.243Z,16.42
2023-04-11T00:21:44.278Z,16.40
2023-04-11T00:24:11.591Z,16.33
2023-04-11T00:26:38.317Z,16.40
2023-04-11T00:29:05.219Z,16.40
2023-04-11T00:31:32.394Z,16.42
2023-04-11T00:33:59.247Z,16.43
2023-04-11T00:36:27.112Z,16.40
2023-04-11T00:38:55.218Z,16.36
2023-04-11T00:41:22.164Z,16.32
2023-04-11T00:43:49.831Z,16.32
2023-04-11T00:46:17.929Z,16.26
2023-04-11T00:48:44.898Z,16.35
2023-04-11T00:51:11.758Z,16.33
2023-04-11T00:53:38.612Z,16.36
2023-04-11T00:56:06.713Z,16.39
2023-04-11T00:58:34.574Z,16.30
2023-04-11T01:01:02.170Z,16.29
2023-04-11T01:03:30.240Z,16.31
2023-04-11T01:05:57.563Z,16.24
2023-04-11T01:08:25.092Z,16.10
2023-04-11T01:10:52.354Z,16.05
2023-04-11T01:13:20.560Z,16.03
2023-04-11T01:15:47.529Z,15.99
2023-04-11T01:18:15.530Z,16.00
2023-04-11T01:20:42.657Z,15.93
2023-04-11T01:23:18.662Z,15.81
2023-04-11T01:25:45.548Z,15.91
2023-04-11T01:28:12.786Z,15.93
2023-04-11T01:30:39.643Z,15.93
2023-04-11T01:33:06.754Z,15.82
2023-04-11T01:35:33.921Z,15.76
2023-04-11T01:38:00.955Z,15.78
2023-04-11T01:40:29.726Z,15.83
2023-04-11T01:42:56.648Z,15.86
2023-04-11T01:45:23.784Z,15.90
2023-04-11T01:47:52.257Z,15.92
2023-04-11T01:50:19.140Z,15.93
2023-04-11T01:52:46.374Z,15.90
2023-04-11T01:55:13.178Z,15.91
2023-04-11T01:57:40.114Z,15.78
2023-04-11T02:00:10.982Z,15.75
2023-04-11T02:02:45.523Z,15.55
2023-04-11T02:05:12.390Z,15.40
2023-04-11T02:07:39.112Z,15.39
2023-04-11T02:10:07.196Z,15.29
2023-04-11T02:12:33.961Z,15.13
2023-04-11T02:15:00.768Z,15.09
2023-04-11T02:17:30.979Z,14.93
2023-04-11T02:19:58.025Z,14.59
2023-04-11T02:22:27.363Z,14.50
2023-04-11T02:24:54.222Z,14.47
2023-04-11T02:27:21.086Z,14.42
2023-04-11T02:29:47.862Z,14.42
2023-04-11T02:32:16.014Z,14.50
2023-04-11T02:34:44.715Z,14.52
2023-04-11T02:37:11.501Z,14.44
2023-04-11T02:39:38.259Z,14.49
2023-04-11T02:42:05.162Z,14.55
2023-04-11T02:44:32.499Z,14.66
2023-04-11T02:47:00.510Z,14.70
2023-04-11T02:49:27.711Z,14.73
2023-04-11T02:51:54.521Z,14.73
2023-04-11T02:54:21.283Z,14.75
2023-04-11T02:56:48.444Z,14.70
2023-04-11T02:59:15.473Z,14.50
2023-04-11T03:01:42.945Z,14.53
2023-04-11T03:04:09.863Z,14.51
2023-04-11T03:06:47.810Z,14.47
2023-04-11T03:09:15.202Z,14.58
2023-04-11T03:11:42.672Z,14.61
2023-04-11T03:14:09.813Z,14.64
2023-04-11T03:16:36.818Z,14.66
2023-04-11T03:19:04.338Z,14.56
2023-04-11T03:21:31.627Z,14.67
2023-04-11T03:23:58.839Z,14.66
2023-04-11T03:26:28.504Z,14.73
2023-04-11T03:28:59.433Z,14.78
2023-04-11T03:31:30.983Z,14.70
2023-04-11T03:33:59.344Z,14.59
2023-04-11T03:36:27.129Z,14.59
2023-04-11T03:38:54.327Z,14.68
2023-04-11T03:41:21.469Z,14.71
2023-04-11T03:43:48.820Z,14.72
2023-04-11T03:46:15.681Z,14.78
2023-04-11T03:48:47.212Z,14.79
2023-04-11T03:51:15.489Z,14.83
2023-04-11T03:53:59.994Z,14.82
2023-04-11T03:56:36.427Z,14.82
2023-04-11T03:59:03.344Z,14.84
2023-04-11T04:01:40.088Z,14.85
2023-04-11T04:04:07.690Z,14.79
2023-04-11T04:06:38.624Z,14.84
2023-04-11T04:09:06.957Z,14.83
2023-04-11T04:11:45.923Z,14.85
2023-04-11T04:14:13.508Z,14.85
2023-04-11T04:16:40.460Z,14.85
2023-04-11T04:19:07.806Z,14.83
2023-04-11T04:21:38.085Z,14.80
2023-04-11T04:24:06.051Z,14.78
2023-04-11T04:27:13.738Z,14.80
2023-04-11T04:29:48.993Z,14.79
2023-04-11T04:32:24.063Z,14.72
2023-04-11T04:34:57.838Z,14.75
2023-04-11T04:37:45.598Z,14.62
2023-04-11T04:40:31.631Z,14.46
2023-04-11T04:43:04.702Z,14.37
2023-04-11T04:45:38.579Z,14.35
2023-04-11T04:48:05.829Z,14.28
2023-04-11T04:50:32.611Z,14.30
2023-04-11T04:52:59.344Z,14.15
2023-04-11T04:55:26.173Z,14.26
2023-04-11T04:57:53.209Z,14.22
2023-04-11T05:00:22.485Z,14.15
2023-04-11T05:02:54.926Z,14.10
2023-04-11T05:05:24.510Z,14.17
2023-04-11T05:07:51.581Z,14.13
2023-04-11T05:10:18.573Z,13.92
2023-04-11T05:12:45.687Z,13.95
2023-04-11T05:15:15.144Z,13.86
2023-04-11T05:17:42.993Z,13.81
2023-04-11T05:20:10.765Z,13.76
2023-04-11T05:22:38.387Z,13.76
2023-04-11T05:25:06.053Z,13.64
2023-04-11T05:27:33.347Z,13.67
2023-04-11T05:30:01.191Z,13.66
2023-04-11T05:32:29.701Z,13.64
2023-04-11T05:34:59.090Z,13.77
2023-04-11T05:37:48.257Z,13.79
2023-04-11T05:40:15.013Z,13.72
2023-04-11T05:42:42.588Z,13.76
2023-04-11T05:45:10.045Z,13.73
2023-04-11T05:47:36.852Z,13.78
2023-04-11T05:50:03.874Z,13.66
2023-04-11T05:52:31.989Z,13.73
2023-04-11T05:54:59.194Z,13.63
2023-04-11T05:57:26.032Z,13.85
2023-04-11T05:59:53.233Z,13.91
2023-04-11T06:02:20.149Z,14.07
2023-04-11T06:04:47.497Z,14.11
2023-04-11T06:07:14.569Z,14.16
2023-04-11T06:09:42.588Z,14.23
2023-04-11T06:12:10.546Z,14.20
2023-04-11T06:14:40.110Z,14.23
2023-04-11T06:17:07.392Z,14.33
2023-04-11T06:19:34.165Z,14.40
2023-04-11T06:22:01.089Z,14.49
2023-04-11T06:24:39.141Z,14.55
2023-04-11T06:27:10.037Z,14.66
2023-04-11T06:29:38.223Z,14.59
2023-04-11T06:32:05.129Z,14.61
2023-04-11T06:34:32.040Z,14.71
2023-04-11T06:36:58.848Z,14.74
2023-04-11T06:39:25.804Z,14.84
2023-04-11T06:41:52.601Z,14.85
2023-04-11T06:44:25.195Z,14.95
2023-04-11T06:46:52.468Z,15.05
2023-04-11T06:49:19.233Z,15.17
2023-04-11T06:51:50.318Z,15.22
2023-04-11T06:54:17.836Z,15.36
2023-04-11T06:56:44.854Z,15.37
2023-04-11T06:59:11.657Z,15.44
2023-04-11T07:01:39.642Z,15.58
2023-04-11T07:04:07.187Z,15.73
2023-04-11T07:06:36.020Z,15.78
2023-04-11T07:09:04.007Z,15.91
2023-04-11T07:11:31.229Z,15.98
2023-04-11T07:14:01.225Z,16.05
2023-04-11T07:16:28.432Z,16.23
2023-04-11T07:18:55.838Z,16.31
2023-04-11T07:21:22.740Z,16.40
2023-04-11T07:23:49.869Z,16.55
2023-04-11T07:26:17.917Z,16.59
2023-04-11T07:28:45.155Z,16.67
2023-04-11T07:31:12.705Z,16.85
2023-04-11T07:33:42.509Z,16.89
2023-04-11T07:36:10.055Z,16.88
2023-04-11T07:38:37.727Z,17.08
2023-04-11T07:41:05.641Z,17.12
2023-04-11T07:43:33.317Z,17.11
2023-04-11T07:46:00.311Z,17.14
2023-04-11T07:48:28.201Z,17.27
2023-04-11T07:50:55.506Z,17.34
2023-04-11T07:53:22.610Z,17.33
2023-04-11T07:55:49.479Z,17.41
2023-04-11T07:58:16.287Z,17.53
2023-04-11T08:00:43.299Z,17.64
2023-04-11T08:03:13.366Z,17.62
2023-04-11T08:05:40.435Z,17.78
2023-04-11T08:08:07.754Z,17.89
2023-04-11T08:10:34.758Z,18.02
2023-04-11T08:13:01.796Z,18.18
2023-04-11T08:15:28.519Z,18.32
2023-04-11T08:17:56.678Z,18.43
2023-04-11T08:20:24.491Z,18.55
2023-04-11T08:22:51.342Z,18.65
2023-04-11T08:25:22.918Z,18.75
2023-04-11T08:27:50.933Z,18.86
2023-04-11T08:30:17.985Z,18.97
2023-04-11T08:32:44.914Z,19.06
2023-04-11T08:35:11.752Z,19.18
2023-04-11T08:37:38.568Z,19.27
2023-04-11T08:40:07.014Z,19.29
2023-04-11T08:42:34.363Z,19.30
2023-04-11T08:45:04.106Z,19.42
2023-04-11T08:47:30.952Z,19.45
2023-04-11T08:49:57.781Z,19.47
2023-04-11T08:52:25.128Z,19.50
2023-04-11T08:54:55.996Z,19.53
2023-04-11T08:57:28.024Z,19.54
2023-04-11T08:59:56.577Z,19.60
2023-04-11T09:02:23.547Z,19.59
2023-04-11T09:04:51.674Z,19.46
2023-04-11T09:07:19.282Z,19.63
2023-04-11T09:09:46.444Z,19.52
2023-04-11T09:12:13.562Z,19.48
2023-04-11T09:14:40.722Z,19.50
2023-04-11T09:17:14.720Z,19.58
2023-04-11T09:19:46.167Z,19.64
2023-04-11T09:22:15.721Z,19.72
2023-04-11T09:24:43.025Z,19.67
2023-04-11T09:27:13.708Z,19.69
2023-04-11T09:29:43.056Z,19.83
2023-04-11T09:32:42.830Z,19.97
2023-04-11T09:35:12.286Z,20.03
2023-04-11T09:37:45.795Z,20.06
2023-04-11T09:40:14.728Z,20.13
2023-04-11T09:42:42.223Z,20.17
2023-04-11T09:45:23.322Z,20.04
2023-04-11T09:47:52.042Z,20.12
2023-04-11T09:50:20.032Z,20.10
2023-04-11T09:52:47.343Z,20.16
2023-04-11T09:55:20.044Z,20.19
2023-04-11T09:57:54.220Z,20.22
2023-04-11T10:00:22.165Z,20.31
2023-04-11T10:02:52.934Z,20.41
2023-04-11T10:05:26.046Z,20.37
2023-04-11T10:08:08.053Z,20.42
2023-04-11T10:10:36.230Z,20.52
2023-04-11T10:13:03.523Z,20.37
2023-04-11T10:15:30.493Z,20.51
2023-04-11T10:18:11.615Z,20.45
2023-04-11T10:20:46.191Z,20.33
2023-04-11T10:23:14.414Z,20.28
2023-04-11T10:26:00.587Z,20.46
2023-04-11T10:28:32.729Z,20.38
2023-04-11T10:31:04.805Z,20.51
2023-04-11T10:33:34.154Z,20.55
2023-04-11T10:36:06.150Z,20.43
2023-04-11T10:38:42.940Z,20.53
2023-04-11T10:41:33.917Z,20.48
2023-04-11T10:44:14.267Z,20.48
2023-04-11T10:46:52.128Z,20.43
2023-04-11T10:49:52.181Z,20.41
2023-04-11T10:52:23.432Z,20.48
2023-04-11T10:54:52.299Z,20.57
2023-04-11T10:57:20.329Z,20.66
2023-04-11T10:59:50.041Z,20.74
2023-04-11T11:02:17.253Z,20.71
2023-04-11T11:04:44.654Z,20.79
2023-04-11T11:07:16.971Z,20.90
2023-04-11T11:09:49.380Z,20.87
2023-04-11T11:12:17.516Z,20.93
2023-04-11T11:14:46.189Z,20.88
2023-04-11T11:17:14.985Z,20.72
2023-04-11T11:19:45.984Z,20.70
2023-04-11T11:22:25.544Z,20.72
2023-04-11T11:24:52.845Z,20.73
2023-04-11T11:27:20.233Z,20.90
2023-04-11T11:29:46.976Z,20.89
2023-04-11T11:32:29.536Z,20.92
2023-04-11T11:34:57.835Z,21.05
2023-04-11T11:37:25.127Z,21.00
2023-04-11T11:39:52.346Z,20.99
2023-04-11T11:42:19.456Z,21.09
2023-04-11T11:44:46.328Z,20.95
2023-04-11T11:47:15.351Z,21.01
2023-04-11T11:49:49.593Z,21.00
2023-04-11T11:52:42.080Z,20.95
2023-04-11T11:55:28.796Z,21.00
2023-04-11T11:57:59.897Z,20.83
2023-04-11T12:00:28.364Z,20.75
2023-04-11T12:02:57.245Z,20.80
2023-04-11T12:05:30.151Z,20.91
2023-04-11T12:07:59.569Z,20.84
2023-04-11T12:10:41.583Z,20.82
2023-04-11T12:13:13.185Z,20.94
2023-04-11T12:15:41.984Z,20.89
2023-04-11T12:18:08.873Z,20.84
2023-04-11T12:20:35.841Z,20.99
2023-04-11T12:23:02.764Z,20.82
2023-04-11T12:25:30.312Z,20.86
2023-04-11T12:27:57.110Z,20.79
2023-04-11T12:30:24.372Z,20.76
2023-04-11T12:32:51.216Z,20.73
2023-04-11T12:35:18.111Z,20.80
2023-04-11T12:37:45.984Z,20.86
2023-04-11T12:40:13.205Z,20.98
2023-04-11T12:45:12.135Z,21.12
2023-04-11T12:47:39.477Z,21.06
2023-04-11T12:50:07.266Z,21.15
2023-04-11T12:52:34.535Z,21.15
2023-04-11T12:55:01.534Z,21.20
2023-04-11T12:57:28.369Z,21.23
2023-04-11T12:59:55.171Z,21.11
2023-04-11T13:02:22.154Z,21.10
2023-04-11T13:04:53.410Z,21.04
2023-04-11T13:07:21.394Z,21.09
2023-04-11T13:09:49.291Z,20.95
2023-04-11T13:12:16.519Z,21.04
2023-04-11T13:14:43.345Z,21.00
2023-04-11T13:17:10.157Z,21.14
2023-04-11T13:19:36.878Z,21.24
2023-04-11T13:22:04.061Z,21.30
2023-04-11T13:24:32.085Z,21.29
2023-04-11T13:26:59.147Z,21.44
2023-04-11T13:29:26.038Z,21.36
2023-04-11T13:31:52.877Z,21.47
2023-04-11T13:34:19.770Z,21.51
2023-04-11T13:36:46.577Z,21.54
2023-04-11T13:39:13.629Z,21.58
2023-04-11T13:41:40.365Z,21.61
2023-04-11T13:44:07.128Z,21.63
2023-04-11T13:46:34.426Z,21.67
2023-04-11T13:49:01.608Z,21.59
2023-04-11T13:51:28.492Z,21.56
2023-04-11T13:53:55.530Z,21.70
2023-04-11T13:56:22.661Z,21.67
2023-04-11T13:58:50.617Z,21.64
2023-04-11T14:01:18.653Z,21.66
2023-04-11T14:03:46.309Z,21.71
2023-04-11T14:06:13.242Z,21.68
2023-04-11T14:08:40.080Z,21.64
2023-04-11T14:11:07.928Z,21.57
2023-04-11T14:13:34.709Z,21.47
2023-04-11T14:16:08.604Z,21.50
2023-04-11T14:18:36.113Z,21.57
2023-04-11T14:21:07.270Z,21.69
2023-04-11T14:23:34.131Z,21.63
2023-04-11T14:26:00.929Z,21.71
2023-04-11T14:28:27.880Z,21.68
2023-04-11T14:30:56.151Z,21.79
2023-04-11T14:33:23.468Z,21.84
2023-04-11T14:35:51.056Z,21.89
2023-04-11T14:38:17.992Z,21.74
2023-04-11T14:40:44.782Z,21.90
2023-04-11T14:43:12.017Z,21.86
2023-04-11T14:45:38.954Z,21.88
2023-04-11T14:48:06.094Z,21.85
2023-04-11T14:50:33.086Z,21.97
2023-04-11T14:52:59.966Z,22.11
2023-04-11T14:55:26.868Z,22.08
2023-04-11T14:57:55.544Z,22.08
2023-04-11T15:00:24.597Z,22.07
2023-04-11T15:02:55.962Z,22.02
2023-04-11T15:05:24.133Z,22.09
2023-04-11T15:07:53.098Z,22.11
2023-04-11T15:10:22.878Z,22.07
2023-04-11T15:12:50.045Z,22.05
2023-04-11T15:15:17.010Z,22.05
2023-04-11T15:17:46.981Z,22.07
2023-04-11T15:20:17.372Z,22.04
2023-04-11T15:22:47.939Z,21.71
2023-04-11T15:25:15.674Z,21.82
2023-04-11T15:27:42.887Z,21.81
2023-04-11T15:30:11.370Z,21.83
2023-04-11T15:32:44.813Z,21.81
2023-04-11T15:35:11.666Z,21.87
2023-04-11T15:37:38.430Z,21.75
2023-04-11T15:40:11.659Z,21.73
2023-04-11T15:42:38.441Z,21.82
2023-04-11T15:45:05.721Z,21.93
2023-04-11T15:47:33.522Z,21.83
2023-04-11T15:50:04.824Z,21.89
2023-04-11T15:52:31.639Z,21.92
2023-04-11T15:54:58.361Z,21.92
2023-04-11T15:57:27.460Z,21.94
2023-04-11T15:59:54.312Z,21.98
2023-04-11T16:02:21.178Z,21.94
2023-04-11T16:04:50.577Z,21.98
2023-04-11T16:07:19.396Z,21.93
2023-04-11T16:09:46.557Z,22.06
2023-04-11T16:12:13.660Z,22.16
2023-04-11T16:14:40.494Z,22.17
2023-04-11T16:17:07.214Z,22.19
2023-04-11T16:19:33.925Z,22.28
2023-04-11T16:22:00.937Z,22.38
2023-04-11T16:24:31.150Z,22.26
2023-04-11T16:26:58.352Z,22.26
2023-04-11T16:29:25.395Z,22.31
2023-04-11T16:31:52.361Z,22.22
2023-04-11T16:34:19.200Z,22.14
2023-04-11T16:36:46.062Z,22.21
2023-04-11T16:39:13.219Z,22.23
2023-04-11T16:41:39.930Z,22.32
2023-04-11T16:44:11.410Z,22.33
2023-04-11T16:46:39.453Z,22.29
2023-04-11T16:49:06.355Z,22.31
2023-04-11T16:51:33.482Z,22.26
2023-04-11T16:54:00.266Z,22.14
2023-04-11T16:56:29.039Z,22.14
2023-04-11T16:58:56.256Z,22.20
2023-04-11T17:01:23.162Z,22.14
2023-04-11T17:03:52.412Z,22.10
2023-04-11T17:06:19.541Z,22.15
2023-04-11T17:08:46.272Z,22.10
2023-04-11T17:11:13.718Z,22.22
2023-04-11T17:13:45.848Z,22.18
2023-04-11T17:16:13.762Z,22.17
2023-04-11T17:18:41.077Z,22.18
2023-04-11T17:21:07.960Z,22.03
2023-04-11T17:23:43.014Z,21.89
2023-04-11T17:26:11.226Z,21.82
2023-04-11T17:28:41.417Z,21.82
2023-04-11T17:31:16.212Z,21.76
2023-04-11T17:33:43.223Z,21.66
2023-04-11T17:36:12.404Z,21.53
2023-04-11T17:38:40.968Z,21.48
2023-04-11T17:41:14.301Z,21.28
2023-04-11T17:43:43.694Z,21.22
2023-04-11T17:46:10.633Z,21.18
2023-04-11T17:48:37.762Z,21.12
2023-04-11T17:51:08.027Z,21.09
2023-04-11T17:53:34.988Z,21.08
2023-04-11T17:56:05.928Z,21.01
2023-04-11T17:58:33.323Z,20.95
2023-04-11T18:01:00.278Z,20.91
2023-04-11T18:03:27.381Z,20.87
2023-04-11T18:05:54.924Z,20.86
2023-04-11T18:08:29.857Z,20.76
2023-04-11T18:11:04.349Z,20.69
2023-04-11T18:13:31.633Z,20.64
2023-04-11T18:15:58.714Z,20.56
2023-04-11T18:18:25.677Z,20.46
2023-04-11T18:20:52.686Z,20.41
2023-04-11T18:23:19.456Z,20.40
2023-04-11T18:25:46.345Z,20.40
2023-04-11T18:28:13.250Z,20.29
2023-04-11T18:30:40.142Z,20.28
2023-04-11T18:33:06.937Z,20.24
2023-04-11T18:35:33.984Z,20.21
2023-04-11T18:38:01.030Z,20.15
2023-04-11T18:40:28.452Z,20.14
2023-04-11T18:42:56.679Z,20.11
2023-04-11T18:45:25.872Z,20.06
2023-04-11T18:47:52.957Z,20.01
2023-04-11T18:50:20.140Z,20.01
2023-04-11T18:52:52.121Z,19.98
2023-04-11T18:55:21.915Z,19.94
2023-04-11T18:57:49.696Z,19.90
2023-04-11T19:00:19.421Z,19.82
2023-04-11T19:02:47.670Z,19.80
2023-04-11T19:05:15.414Z,19.73
2023-04-11T19:07:42.999Z,19.68
2023-04-11T19:10:11.477Z,19.67
2023-04-11T19:12:39.122Z,19.65
2023-04-11T19:15:08.103Z,19.62
2023-04-11T19:17:36.624Z,19.60
2023-04-11T19:20:16.600Z,19.51
2023-04-11T19:22:46.441Z,19.52
2023-04-11T19:25:13.661Z,19.50
2023-04-11T19:27:42.059Z,19.43
2023-04-11T19:30:10.704Z,19.41
2023-04-11T19:32:43.604Z,19.35
2023-04-11T19:35:11.501Z,19.34
2023-04-11T19:37:38.988Z,19.36
2023-04-11T19:40:08.032Z,19.35
2023-04-11T19:42:37.282Z,19.30
2023-04-11T19:45:05.053Z,19.31
2023-04-11T19:47:32.558Z,19.31
2023-04-11T19:50:01.129Z,19.31
2023-04-11T19:52:28.811Z,19.31
2023-04-11T19:54:56.538Z,19.25
2023-04-11T19:57:26.642Z,19.26
2023-04-11T19:59:53.550Z,19.24
2023-04-11T20:02:21.219Z,19.22
2023-04-11T20:04:48.177Z,19.21
2023-04-11T20:07:15.580Z,19.18
2023-04-11T20:09:42.358Z,19.19
2023-04-11T20:12:09.229Z,19.16
2023-04-11T20:14:37.971Z,19.17
2023-04-11T20:17:06.086Z,19.17
2023-04-11T20:19:33.335Z,19.16
2023-04-11T20:22:01.186Z,19.13
2023-04-11T20:24:28.152Z,19.08
2023-04-11T20:26:57.104Z,19.03
2023-04-11T20:29:30.880Z,18.97
2023-04-11T20:31:58.337Z,18.94
2023-04-11T20:34:25.330Z,18.94
2023-04-11T20:36:52.500Z,18.92
2023-04-11T20:39:19.308Z,18.92
2023-04-11T20:41:46.178Z,18.89
2023-04-11T20:44:13.420Z,18.88
2023-04-11T20:46:42.239Z,18.84
2023-04-11T20:49:09.464Z,18.80
2023-04-11T20:51:36.785Z,18.79
2023-04-11T20:54:03.707Z,18.76
2023-04-11T20:56:35.418Z,18.77
2023-04-11T20:59:02.601Z,18.78
2023-04-11T21:01:32.967Z,18.75
2023-04-11T21:04:02.320Z,18.78
2023-04-11T21:06:32.704Z,18.77
2023-04-11T21:09:00.022Z,18.79
2023-04-11T21:11:27.173Z,18.76
2023-04-11T21:13:54.783Z,18.78
2023-04-11T21:16:22.021Z,18.76
2023-04-11T21:18:49.162Z,18.70
2023-04-11T21:21:15.881Z,18.69
2023-04-11T21:23:43.492Z,18.62
2023-04-11T21:26:10.605Z,18.54
2023-04-11T21:28:37.316Z,18.51
2023-04-11T21:31:04.161Z,18.46
2023-04-11T21:33:31.017Z,18.33
2023-04-11T21:35:57.865Z,18.35
2023-04-11T21:38:24.780Z,18.34
2023-04-11T21:40:52.383Z,18.32
2023-04-11T21:43:19.118Z,18.19
2023-04-11T21:45:45.940Z,18.18
2023-04-11T21:48:12.666Z,18.03
2023-04-11T21:50:39.465Z,17.88
2023-04-11T21:53:06.341Z,17.92
2023-04-11T21:55:33.090Z,18.03
2023-04-11T21:57:59.941Z,18.09
2023-04-11T22:00:27.201Z,18.11
2023-04-11T22:02:54.010Z,18.08
2023-04-11T22:05:21.805Z,18.06
2023-04-11T22:07:50.611Z,18.07
2023-04-11T22:10:22.625Z,18.07
2023-04-11T22:12:50.227Z,18.03
2023-04-11T22:15:18.523Z,18.03
2023-04-11T22:17:50.299Z,17.98
2023-04-11T22:20:18.224Z,17.85
2023-04-11T22:22:45.081Z,17.75
2023-04-11T22:25:11.949Z,17.66
2023-04-11T22:27:38.852Z,17.60
2023-04-11T22:30:07.120Z,17.61
2023-04-11T22:32:34.280Z,17.50
2023-04-11T22:35:01.341Z,17.50
2023-04-11T22:37:28.253Z,17.57
2023-04-11T22:39:55.190Z,17.46
2023-04-11T22:42:22.068Z,17.47
2023-04-11T22:44:48.827Z,17.52
2023-04-11T22:47:16.591Z,17.46
2023-04-11T22:49:44.891Z,17.47
2023-04-11T22:52:15.517Z,17.55
2023-04-11T22:54:43.115Z,17.44
2023-04-11T22:57:10.460Z,17.36
2023-04-11T22:59:37.348Z,17.39
2023-04-11T23:02:04.242Z,17.38
2023-04-11T23:04:32.315Z,17.38
2023-04-11T23:06:59.602Z,17.35
2023-04-11T23:09:28.161Z,17.38
2023-04-11T23:11:54.973Z,17.30
2023-04-11T23:14:22.450Z,17.26
2023-04-11T23:16:49.490Z,17.26
2023-04-11T23:19:18.900Z,17.26
2023-04-11T23:21:45.924Z,17.25
2023-04-11T23:24:12.634Z,17.30
2023-04-11T23:26:39.334Z,17.34
2023-04-11T23:29:06.065Z,17.38
2023-04-11T23:31:33.766Z,17.43
2023-04-11T23:34:01.000Z,17.44
2023-04-11T23:36:28.179Z,17.45
2023-04-11T23:38:55.208Z,17.45
2023-04-11T23:41:22.047Z,17.45
2023-04-11T23:43:48.818Z,17.45
2023-04-11T23:46:18.092Z,17.44
2023-04-11T23:48:46.907Z,17.45
2023-04-11T23:51:14.066Z,17.45
2023-04-11T23:53:42.510Z,17.42
2023-04-11T23:56:10.347Z,17.41
2023-04-11T23:58:37.805Z,17.42
